CFG3NL EDDF-EGKK
Flight info
| Callsign | CFG3NL |
|---|---|
| Flight time | N/A |
| Altitude | 32000 |
| Route | SOBRA2L/18 SOBRA Y180 BITBU Y181 DEMUL M624 BUB L608 DENUT L610 TEBRA |
| Aircraft | A321/M-SDE3FGHIRWY/LB1 |
Departure
| Time | 2026-04-15 16:55 |
|---|---|
| Airport | Frankfurt Main Airport (EDDF) |
Arrival
| Time | N/A |
|---|---|
| Airport | London Gatwick Airport (EGKK) |
| Time | Latitude | Longitude | Altitude | Speed | Heading |
|---|---|---|---|---|---|
| 2026-04-15 16:32 | 50.04653 | 8.56816 | 356 ft | 0 kts | 295° |
| 2026-04-15 16:43 | 50.04652 | 8.56819 | 356 ft | 1 kts | 295° |
| 2026-04-15 16:43 | 50.04645 | 8.56843 | 363 ft | 3 kts | 295° |
| 2026-04-15 16:43 | 50.04638 | 8.56869 | 363 ft | 2 kts | 294° |
| 2026-04-15 16:44 | 50.04631 | 8.56896 | 359 ft | 3 kts | 269° |
| 2026-04-15 16:44 | 50.04635 | 8.56920 | 361 ft | 3 kts | 221° |
| 2026-04-15 16:44 | 50.04651 | 8.56935 | 363 ft | 3 kts | 199° |
| 2026-04-15 16:44 | 50.04668 | 8.56944 | 358 ft | 2 kts | 204° |
| 2026-04-15 16:45 | 50.04667 | 8.56944 | 358 ft | 2 kts | 205° |
| 2026-04-15 16:45 | 50.04653 | 8.56934 | 364 ft | 1 kts | 204° |
| 2026-04-15 16:45 | 50.04651 | 8.56933 | 364 ft | 0 kts | 204° |
| 2026-04-15 16:47 | 50.04629 | 8.56920 | 363 ft | 10 kts | 197° |
| 2026-04-15 16:47 | 50.04537 | 8.56886 | 359 ft | 14 kts | 193° |
| 2026-04-15 16:48 | 50.04451 | 8.56814 | 361 ft | 17 kts | 238° |
| 2026-04-15 16:48 | 50.04404 | 8.56634 | 359 ft | 18 kts | 250° |
| 2026-04-15 16:48 | 50.04362 | 8.56452 | 362 ft | 18 kts | 250° |
| 2026-04-15 16:48 | 50.04319 | 8.56273 | 361 ft | 18 kts | 250° |
| 2026-04-15 16:49 | 50.04267 | 8.56051 | 359 ft | 26 kts | 250° |
| 2026-04-15 16:49 | 50.04204 | 8.55792 | 360 ft | 26 kts | 251° |
| 2026-04-15 16:49 | 50.04134 | 8.55500 | 357 ft | 31 kts | 250° |
| 2026-04-15 16:49 | 50.04062 | 8.55195 | 360 ft | 29 kts | 249° |
| 2026-04-15 16:50 | 50.03993 | 8.54908 | 358 ft | 28 kts | 250° |
| 2026-04-15 16:50 | 50.03924 | 8.54621 | 354 ft | 28 kts | 249° |
| 2026-04-15 16:50 | 50.03846 | 8.54339 | 352 ft | 28 kts | 237° |
| 2026-04-15 16:50 | 50.03763 | 8.54069 | 353 ft | 27 kts | 249° |
| 2026-04-15 16:51 | 50.03697 | 8.53795 | 344 ft | 27 kts | 249° |
| 2026-04-15 16:51 | 50.03631 | 8.53525 | 337 ft | 27 kts | 249° |
| 2026-04-15 16:51 | 50.03566 | 8.53258 | 336 ft | 26 kts | 250° |
| 2026-04-15 16:51 | 50.03503 | 8.52996 | 333 ft | 26 kts | 249° |
| 2026-04-15 16:52 | 50.03454 | 8.52810 | 333 ft | 11 kts | 246° |
| 2026-04-15 16:52 | 50.03434 | 8.52733 | 335 ft | 0 kts | 249° |
| 2026-04-15 16:52 | 50.03431 | 8.52719 | 333 ft | 7 kts | 249° |
| 2026-04-15 16:52 | 50.03387 | 8.52598 | 333 ft | 13 kts | 199° |
| 2026-04-15 16:53 | 50.03365 | 8.52595 | 335 ft | 0 kts | 181° |
| 2026-04-15 16:54 | 50.03344 | 8.52595 | 335 ft | 12 kts | 180° |
| 2026-04-15 16:54 | 50.03003 | 8.52596 | 334 ft | 84 kts | 179° |
| 2026-04-15 16:55 | 50.02218 | 8.52605 | 335 ft | 139 kts | 179° |
| 2026-04-15 16:55 | 50.01104 | 8.52616 | 350 ft | 178 kts | 180° |
| 2026-04-15 16:55 | 49.99813 | 8.52629 | 792 ft | 184 kts | 180° |
| 2026-04-15 16:55 | 49.98554 | 8.52687 | 1396 ft | 185 kts | 176° |
| 2026-04-15 16:56 | 49.97239 | 8.52785 | 1789 ft | 195 kts | 176° |
| 2026-04-15 16:56 | 49.95866 | 8.52894 | 1915 ft | 212 kts | 176° |
| 2026-04-15 16:56 | 49.94360 | 8.53009 | 2130 ft | 224 kts | 176° |
| 2026-04-15 16:56 | 49.92774 | 8.53128 | 2456 ft | 233 kts | 176° |
| 2026-04-15 16:57 | 49.91135 | 8.53245 | 3160 ft | 236 kts | 177° |
| 2026-04-15 16:57 | 49.89491 | 8.53358 | 3931 ft | 237 kts | 177° |
| 2026-04-15 16:57 | 49.87837 | 8.53421 | 4656 ft | 240 kts | 184° |
| 2026-04-15 16:57 | 49.86167 | 8.52871 | 5173 ft | 255 kts | 200° |
| 2026-04-15 16:58 | 49.84434 | 8.51890 | 5546 ft | 273 kts | 200° |
| 2026-04-15 16:58 | 49.82626 | 8.50861 | 6215 ft | 280 kts | 199° |
| 2026-04-15 16:58 | 49.80779 | 8.49812 | 6931 ft | 284 kts | 199° |
| 2026-04-15 16:58 | 49.78926 | 8.48736 | 7708 ft | 285 kts | 204° |
| 2026-04-15 16:59 | 49.77299 | 8.46989 | 8455 ft | 287 kts | 228° |
| 2026-04-15 16:59 | 49.76273 | 8.44377 | 9256 ft | 286 kts | 251° |
| 2026-04-15 16:59 | 49.76011 | 8.42381 | 9801 ft | 286 kts | 266° |
| 2026-04-15 16:59 | 49.76253 | 8.39324 | 10454 ft | 292 kts | 283° |
| 2026-04-15 17:00 | 49.76762 | 8.36160 | 10508 ft | 315 kts | 283° |
| 2026-04-15 17:00 | 49.77317 | 8.32763 | 10726 ft | 336 kts | 283° |
| 2026-04-15 17:00 | 49.77908 | 8.29155 | 10935 ft | 353 kts | 283° |
| 2026-04-15 17:00 | 49.78515 | 8.25430 | 11460 ft | 359 kts | 283° |
| 2026-04-15 17:01 | 49.79121 | 8.21678 | 12091 ft | 362 kts | 284° |
| 2026-04-15 17:01 | 49.79730 | 8.17878 | 12725 ft | 365 kts | 284° |
| 2026-04-15 17:01 | 49.80342 | 8.14046 | 13343 ft | 369 kts | 284° |
| 2026-04-15 17:01 | 49.80959 | 8.10169 | 13943 ft | 373 kts | 284° |
| 2026-04-15 17:02 | 49.81581 | 8.06247 | 14472 ft | 377 kts | 284° |
| 2026-04-15 17:02 | 49.82208 | 8.02290 | 15014 ft | 380 kts | 284° |
| 2026-04-15 17:02 | 49.82836 | 7.98304 | 15564 ft | 382 kts | 284° |
| 2026-04-15 17:02 | 49.83467 | 7.94289 | 16094 ft | 385 kts | 284° |
| 2026-04-15 17:03 | 49.84103 | 7.90238 | 16615 ft | 388 kts | 284° |
| 2026-04-15 17:03 | 49.84743 | 7.86156 | 17135 ft | 391 kts | 284° |
| 2026-04-15 17:03 | 49.85388 | 7.82041 | 17655 ft | 394 kts | 284° |
| 2026-04-15 17:03 | 49.86035 | 7.77908 | 18168 ft | 396 kts | 284° |
| 2026-04-15 17:04 | 49.86687 | 7.73738 | 18641 ft | 399 kts | 284° |
| 2026-04-15 17:04 | 49.87341 | 7.69552 | 19091 ft | 401 kts | 284° |
| 2026-04-15 17:04 | 49.87997 | 7.65325 | 19538 ft | 403 kts | 284° |
| 2026-04-15 17:04 | 49.88655 | 7.61079 | 19982 ft | 405 kts | 284° |
| 2026-04-15 17:05 | 49.89304 | 7.56874 | 20417 ft | 407 kts | 284° |
| 2026-04-15 17:05 | 49.89973 | 7.52537 | 20875 ft | 409 kts | 285° |
| 2026-04-15 17:05 | 49.90628 | 7.48291 | 21310 ft | 411 kts | 285° |
| 2026-04-15 17:05 | 49.91294 | 7.43966 | 21738 ft | 413 kts | 285° |
| 2026-04-15 17:06 | 49.91960 | 7.39618 | 22176 ft | 416 kts | 285° |
| 2026-04-15 17:06 | 49.92627 | 7.35238 | 22619 ft | 418 kts | 285° |
| 2026-04-15 17:06 | 49.92673 | 7.34934 | 22651 ft | 418 kts | 285° |
| 2026-04-15 17:06 | 49.93202 | 7.31438 | 22872 ft | 418 kts | 285° |
| 2026-04-15 17:07 | 49.93871 | 7.27014 | 23266 ft | 421 kts | 285° |
| 2026-04-15 17:07 | 49.94536 | 7.22589 | 23679 ft | 423 kts | 285° |
| 2026-04-15 17:07 | 49.95205 | 7.18128 | 24041 ft | 425 kts | 285° |
| 2026-04-15 17:07 | 49.95876 | 7.13646 | 24374 ft | 427 kts | 285° |
| 2026-04-15 17:08 | 49.96549 | 7.09155 | 24706 ft | 428 kts | 285° |
| 2026-04-15 17:08 | 49.97224 | 7.04635 | 25051 ft | 430 kts | 285° |
| 2026-04-15 17:08 | 49.97898 | 7.00101 | 25390 ft | 432 kts | 285° |
| 2026-04-15 17:08 | 49.98573 | 6.95540 | 25697 ft | 433 kts | 285° |
| 2026-04-15 17:09 | 49.99128 | 6.90926 | 26013 ft | 437 kts | 279° |
| 2026-04-15 17:09 | 49.99223 | 6.86184 | 26328 ft | 442 kts | 270° |
| 2026-04-15 17:09 | 49.99080 | 6.81402 | 26628 ft | 444 kts | 271° |
| 2026-04-15 17:09 | 49.98935 | 6.76593 | 26926 ft | 446 kts | 271° |
| 2026-04-15 17:10 | 49.98786 | 6.71759 | 27219 ft | 448 kts | 270° |
| 2026-04-15 17:10 | 49.98633 | 6.66913 | 27535 ft | 449 kts | 271° |
| 2026-04-15 17:10 | 49.98480 | 6.62063 | 27830 ft | 451 kts | 271° |
| 2026-04-15 17:10 | 49.98330 | 6.57255 | 28124 ft | 453 kts | 271° |
| 2026-04-15 17:11 | 49.98178 | 6.52356 | 28407 ft | 454 kts | 271° |
| 2026-04-15 17:11 | 49.98026 | 6.47445 | 28734 ft | 455 kts | 271° |
| 2026-04-15 17:11 | 49.97869 | 6.42539 | 29150 ft | 453 kts | 271° |
| 2026-04-15 17:12 | 49.97549 | 6.32781 | 29956 ft | 450 kts | 271° |
| 2026-04-15 17:12 | 49.97388 | 6.27935 | 30332 ft | 449 kts | 271° |
| 2026-04-15 17:12 | 49.97223 | 6.23091 | 30673 ft | 447 kts | 271° |
| 2026-04-15 17:12 | 49.97056 | 6.18279 | 31005 ft | 446 kts | 271° |
| 2026-04-15 17:13 | 49.96887 | 6.13478 | 31350 ft | 445 kts | 270° |
| 2026-04-15 17:13 | 49.96784 | 6.08694 | 31695 ft | 441 kts | 276° |
| 2026-04-15 17:13 | 49.97057 | 6.03983 | 32033 ft | 436 kts | 282° |
| 2026-04-15 17:13 | 49.97732 | 5.99429 | 32148 ft | 429 kts | 291° |
| 2026-04-15 17:14 | 49.98919 | 5.95241 | 32172 ft | 421 kts | 302° |
| 2026-04-15 17:14 | 50.00598 | 5.91548 | 32177 ft | 417 kts | 313° |
| 2026-04-15 17:14 | 50.04740 | 5.85280 | 32158 ft | 415 kts | 317° |
| 2026-04-15 17:15 | 50.08887 | 5.79086 | 32171 ft | 416 kts | 316° |
| 2026-04-15 17:15 | 50.13042 | 5.72813 | 32170 ft | 416 kts | 316° |
| 2026-04-15 17:16 | 50.17192 | 5.66535 | 32151 ft | 416 kts | 316° |
| 2026-04-15 17:16 | 50.21350 | 5.60252 | 32166 ft | 416 kts | 316° |
| 2026-04-15 17:17 | 50.25507 | 5.53969 | 32154 ft | 416 kts | 316° |
| 2026-04-15 17:17 | 50.29482 | 5.47923 | 32160 ft | 416 kts | 316° |
| 2026-04-15 17:18 | 50.32132 | 5.43889 | 32140 ft | 415 kts | 316° |
| 2026-04-15 17:18 | 50.34827 | 5.39787 | 32161 ft | 416 kts | 316° |
| 2026-04-15 17:19 | 50.38975 | 5.33451 | 32159 ft | 416 kts | 315° |
| 2026-04-15 17:19 | 50.43129 | 5.27086 | 32160 ft | 417 kts | 315° |
| 2026-04-15 17:20 | 50.47273 | 5.20737 | 32155 ft | 417 kts | 315° |
| 2026-04-15 17:20 | 50.51407 | 5.14369 | 32156 ft | 416 kts | 315° |
| 2026-04-15 17:21 | 50.55531 | 5.07982 | 32153 ft | 416 kts | 315° |
| 2026-04-15 17:21 | 50.59670 | 5.01576 | 32152 ft | 417 kts | 315° |
| 2026-04-15 17:22 | 50.63805 | 4.95179 | 32147 ft | 417 kts | 315° |
| 2026-04-15 17:22 | 50.67932 | 4.88766 | 32144 ft | 417 kts | 315° |
| 2026-04-15 17:23 | 50.72060 | 4.82336 | 32125 ft | 417 kts | 315° |